Pagrindinis puslapis
METAR-TAF:

METAR-TAF

Oro uostai :

Hondo, Teksasas, Jungtinės Amerikos Valstijos

platuma: 29-21-34N, ilguma: 099-10-27W, Aukštis: 283 m

Dabartinis oras

Ataskaita buvo paskelbta 44 minutes, ne 06:51 UTC
Vėjas 3 kt iš Šiaurės/Šiaurės Rytų
Temperatūra 19°C
Drėgmė 88%
Slėgis 1014 hPa
Matomumas: 16.1 km
Giedras dangus

METAR: KHDO 270651Z AUTO 02003KT 10SM CLR 19/17 A2994 RMK AO2 SLP123 T01940172

Laikas: 02:35 (07:35 UTC)


TAF: trūkstamas

Orai ataskaitas ir orų prognozės (METAR, TAF).

turimą stotys yra geltonos ir raudonos taškus žemėlapyje.

Perkelti pele per norėdami pamatyti stoties vardą.

Tada spustelėkite, norėdami matyti oro stebėjimo ir prognozės.

Norėdami pakeisti žemėlapį: spustelėkite ant žalios mygtukų su juodo kryžiaus žemyn,; žalią mygtuką su brūkšneliu, jei norite nutolinti; arba žalių rodyklių gretimoms žemėlapius.


METAR-TAF: